Time;durP1;ratioP1;P1;durP2;ratioP2;P2;SDS_P1;SDS_P2;PMS_P1;PMS_P2;Temp;Humidity;BMP_temperature;BMP_pressure;BME280_temperature;BME280_humidity;BME280_pressure;Samples;Min_cycle;Max_cycle;Signal;HPM_P1;HPM_P2
2022/06/02 00:00:45;;;;;;;8.20;2.00;;;;;;;13.30;71.40;100251.37;52606;1273;1016619;-64
2022/06/02 00:03:29;;;;;;;7.40;2.00;;;;;;;13.28;71.47;100255.89;52542;1274;1016434;-64
2022/06/02 00:06:11;;;;;;;6.80;1.90;;;;;;;13.26;71.40;100251.95;52537;1274;1017858;-64
2022/06/02 00:08:56;;;;;;;6.20;1.80;;;;;;;13.24;71.53;100258.87;52637;1274;1016408;-64
2022/06/02 00:11:42;;;;;;;5.10;1.50;;;;;;;13.24;71.69;100260.86;52624;1274;1016117;-64
2022/06/02 00:14:16;;;;;;;7.10;2.10;;;;;;;13.23;71.95;100258.29;52611;1274;1017429;-63
2022/06/02 00:16:54;;;;;;;7.30;2.10;;;;;;;13.22;72.05;100261.39;52477;1274;1018270;-63
2022/06/02 00:19:31;;;;;;;7.50;1.90;;;;;;;13.22;72.18;100259.10;52501;1274;1015853;-64
2022/06/02 00:22:06;;;;;;;7.70;1.80;;;;;;;13.21;72.59;100262.10;52592;1274;1016308;-64
2022/06/02 00:24:42;;;;;;;5.70;2.00;;;;;;;13.21;72.67;100265.16;52484;1274;1016598;-64
2022/06/02 00:27:25;;;;;;;6.70;1.90;;;;;;;13.20;72.78;100261.88;52540;1274;1017099;-64
2022/06/02 00:30:03;;;;;;;7.80;2.40;;;;;;;13.19;72.80;100260.90;52623;1274;1016489;-64
2022/06/02 00:32:43;;;;;;;6.10;1.70;;;;;;;13.18;72.80;100266.52;52537;1274;1016554;-63
2022/06/02 00:35:21;;;;;;;7.30;2.10;;;;;;;13.19;72.99;100276.60;52617;1274;1017207;-63
2022/06/02 00:37:56;;;;;;;5.60;1.90;;;;;;;13.20;72.97;100282.17;52661;1275;1016837;-64
2022/06/02 00:40:27;;;;;;;7.40;2.40;;;;;;;13.21;73.15;100277.34;52631;1274;1016229;-64
2022/06/02 00:43:23;;;;;;;8.40;2.10;;;;;;;13.23;73.18;100280.42;52588;1274;1016654;-64
2022/06/02 00:45:59;;;;;;;8.50;2.00;;;;;;;13.26;73.20;100281.51;52497;1274;1019122;-64
2022/06/02 00:48:37;;;;;;;6.10;1.60;;;;;;;13.27;73.48;100275.66;52479;1274;1016394;-63
2022/06/02 00:51:09;;;;;;;6.90;2.10;;;;;;;13.27;73.40;100281.22;52497;1274;1016148;-63
2022/06/02 00:59:47;;;;;;;5.70;1.80;;;;;;;13.25;73.81;100266.10;52597;1274;1016461;-64
2022/06/02 01:02:17;;;;;;;6.60;2.10;;;;;;;13.25;73.53;100261.83;52649;1274;1016671;-63
2022/06/02 01:04:46;;;;;;;6.70;2.00;;;;;;;13.23;73.64;100266.20;52554;1274;1016664;-63
2022/06/02 01:07:27;;;;;;;9.00;2.10;;;;;;;13.20;73.52;100269.84;52635;1274;1016123;-63
2022/06/02 01:10:09;;;;;;;8.90;2.30;;;;;;;13.16;73.56;100279.38;52598;1275;1016662;-63
2022/06/02 01:13:16;;;;;;;6.90;2.20;;;;;;;13.12;73.75;100284.86;52596;1274;1016357;-63
2022/06/02 01:16:00;;;;;;;6.60;1.90;;;;;;;13.10;73.95;100280.70;52560;1274;1016639;-63
2022/06/02 01:18:43;;;;;;;5.30;2.00;;;;;;;13.09;73.89;100278.75;52595;1274;1016609;-63
2022/06/02 01:21:42;;;;;;;8.00;2.50;;;;;;;13.07;74.04;100277.98;52580;1274;1016606;-63
2022/06/02 01:24:39;;;;;;;9.50;2.70;;;;;;;13.04;74.35;100278.45;52628;1274;1016737;-62
2022/06/02 01:27:34;;;;;;;7.20;2.10;;;;;;;13.03;74.35;100277.15;52567;1273;1016249;-64
2022/06/02 01:30:23;;;;;;;6.30;1.80;;;;;;;13.02;74.47;100282.34;52553;1274;1016506;-64
2022/06/02 01:33:02;;;;;;;6.60;2.00;;;;;;;13.01;74.55;100284.96;52636;1274;1016658;-63
2022/06/02 01:35:43;;;;;;;8.60;2.40;;;;;;;12.98;74.60;100291.32;52611;1273;1016682;-64
2022/06/02 01:38:16;;;;;;;7.80;2.50;;;;;;;12.97;74.85;100291.86;52599;1274;1016144;-63
2022/06/02 01:40:58;;;;;;;7.70;2.90;;;;;;;12.97;75.00;100285.85;52536;1274;1016667;-63
2022/06/02 01:43:37;;;;;;;8.20;2.40;;;;;;;12.97;75.36;100281.67;52613;1274;1016354;-63
2022/06/02 01:46:23;;;;;;;9.30;2.40;;;;;;;12.96;75.29;100282.44;52570;1274;1016490;-63
2022/06/02 01:49:01;;;;;;;10.00;2.90;;;;;;;12.99;75.56;100286.44;52610;1274;1016248;-63
2022/06/02 01:51:38;;;;;;;7.90;2.50;;;;;;;12.99;75.68;100287.81;52598;1274;1016198;-63
2022/06/02 01:54:17;;;;;;;11.70;2.90;;;;;;;12.98;75.82;100296.57;52497;1276;1018271;-63
2022/06/02 01:57:05;;;;;;;9.10;2.60;;;;;;;12.96;75.83;100299.14;52551;1273;1016402;-63
2022/06/02 01:59:43;;;;;;;9.20;2.50;;;;;;;12.87;75.91;100299.30;52639;1273;1016246;-62
2022/06/02 02:02:21;;;;;;;7.40;2.30;;;;;;;12.76;75.90;100295.87;52611;1274;1016528;-62
2022/06/02 02:05:13;;;;;;;7.40;2.60;;;;;;;12.74;76.27;100294.78;52602;1274;1016463;-63
2022/06/02 02:07:58;;;;;;;6.70;2.10;;;;;;;12.75;76.35;100289.85;52681;1273;1016551;-64
2022/06/02 02:10:39;;;;;;;7.30;2.10;;;;;;;12.77;76.34;100291.09;52564;1273;1019295;-64
2022/06/02 02:13:13;;;;;;;;;;;;;;;12.77;76.32;100290.27;52694;1273;1016716;-63
2022/06/02 02:15:50;;;;;;;7.50;2.20;;;;;;;12.76;76.43;100287.33;52642;1273;1016003;-63
2022/06/02 02:18:27;;;;;;;7.10;2.20;;;;;;;12.76;76.52;100286.09;52565;1273;1016326;-63
2022/06/02 02:21:09;;;;;;;8.60;2.60;;;;;;;12.76;76.59;100284.36;52633;1274;1017441;-63
2022/06/02 02:23:47;;;;;;;9.10;2.90;;;;;;;12.75;76.60;100280.48;52561;1273;1016345;-64
2022/06/02 02:26:20;;;;;;;8.50;2.40;;;;;;;12.74;76.64;100285.45;52532;1273;1016219;-63
2022/06/02 02:28:56;;;;;;;6.80;2.20;;;;;;;12.72;76.80;100278.77;52643;1274;1016289;-63
2022/06/02 02:31:40;;;;;;;5.90;2.40;;;;;;;12.73;76.96;100274.14;52732;1273;1016682;-62
2022/06/02 02:34:30;;;;;;;8.80;2.50;;;;;;;12.72;76.91;100274.39;52546;1274;1016841;-62
2022/06/02 02:37:07;;;;;;;10.70;2.70;;;;;;;12.72;76.88;100278.52;52595;1274;1016011;-63
2022/06/02 02:39:44;;;;;;;7.40;2.40;;;;;;;12.73;76.95;100282.95;52552;1274;1016196;-65
2022/06/02 02:42:19;;;;;;;7.70;2.40;;;;;;;12.73;76.82;100281.73;52555;1273;1016662;-63
2022/06/02 02:44:59;;;;;;;7.40;2.40;;;;;;;12.72;76.93;100281.31;52559;1274;1016182;-63
2022/06/02 02:47:35;;;;;;;7.30;2.30;;;;;;;12.70;77.16;100282.96;52550;1273;1016170;-64
2022/06/02 02:50:11;;;;;;;6.40;2.60;;;;;;;12.65;77.45;100290.09;52716;1273;1015846;-64
2022/06/02 02:52:50;;;;;;;10.30;2.70;;;;;;;12.61;77.53;100299.92;52564;1273;1016501;-64
2022/06/02 02:55:24;;;;;;;7.30;2.60;;;;;;;12.60;77.61;100307.52;52627;1273;1016458;-63
2022/06/02 02:57:58;;;;;;;9.80;3.00;;;;;;;12.59;77.79;100312.07;52674;1273;1016487;-63
2022/06/02 03:00:33;;;;;;;8.00;2.50;;;;;;;12.55;78.05;100313.05;52693;1273;1020069;-63
2022/06/02 03:03:09;;;;;;;7.60;2.50;;;;;;;12.53;78.17;100313.13;52752;1273;1016501;-62
2022/06/02 03:06:04;;;;;;;7.00;2.50;;;;;;;12.54;78.21;100314.65;52638;1273;1017734;-62
2022/06/02 03:08:45;;;;;;;8.20;3.10;;;;;;;12.58;78.30;100318.33;52743;1273;1018243;-62
2022/06/02 03:11:34;;;;;;;8.90;2.90;;;;;;;12.59;78.39;100324.61;52527;1273;1016672;-62
2022/06/02 03:14:09;;;;;;;9.50;2.90;;;;;;;12.53;78.53;100338.58;52732;1273;1019049;-63
2022/06/02 03:16:41;;;;;;;7.10;2.40;;;;;;;12.44;78.58;100343.95;52574;1273;1016274;-62
2022/06/02 03:19:22;;;;;;;8.20;2.90;;;;;;;12.39;78.71;100355.95;52620;1273;1016068;-62
2022/06/02 03:22:02;;;;;;;9.00;3.30;;;;;;;12.40;78.88;100356.78;52694;1273;1020362;-62
2022/06/02 03:24:44;;;;;;;8.40;2.60;;;;;;;12.42;79.06;100362.27;52632;1273;1016341;-63
2022/06/02 03:27:24;;;;;;;6.60;2.90;;;;;;;12.40;79.22;100373.02;52730;1273;1017355;-63
2022/06/02 03:30:16;;;;;;;11.60;3.60;;;;;;;12.37;79.25;100383.98;52660;1273;1016026;-63
2022/06/02 03:33:05;;;;;;;9.60;3.90;;;;;;;12.40;79.46;100395.42;52553;1273;1018176;-63
2022/06/02 03:35:43;;;;;;;11.60;3.30;;;;;;;12.43;79.69;100420.61;52676;1273;1016332;-64
2022/06/02 03:38:28;;;;;;;9.50;3.10;;;;;;;12.45;80.28;100434.89;52672;1273;1018248;-63
2022/06/02 03:41:17;;;;;;;9.60;3.90;;;;;;;12.40;79.94;100423.96;52588;1273;1020161;-62
2022/06/02 03:44:07;;;;;;;9.10;2.60;;;;;;;12.38;79.64;100432.95;52639;1274;1016557;-65
2022/06/02 03:46:53;;;;;;;10.50;3.00;;;;;;;12.39;80.07;100443.05;52641;1273;1016124;-63
2022/06/02 03:49:50;;;;;;;13.10;3.80;;;;;;;12.35;80.00;100443.30;52735;1273;1016299;-63
2022/06/02 03:52:37;;;;;;;8.60;2.50;;;;;;;12.32;80.01;100450.94;52581;1273;1018254;-63
2022/06/02 03:55:21;;;;;;;11.00;3.20;;;;;;;12.30;79.65;100451.92;52637;1273;1019905;-63
2022/06/02 03:58:16;;;;;;;9.20;2.80;;;;;;;12.26;79.65;100458.80;52535;1273;1016602;-63
2022/06/02 04:00:54;;;;;;;6.80;2.50;;;;;;;12.23;79.56;100464.45;50603;1273;1016633;-63
2022/06/02 04:03:37;;;;;;;8.30;2.50;;;;;;;12.24;79.42;100468.58;52956;1266;1016230;-50
2022/06/02 04:06:26;;;;;;;7.80;2.40;;;;;;;12.23;79.14;100465.61;52821;1271;1016681;-51
2022/06/02 04:09:06;;;;;;;6.40;2.00;;;;;;;12.23;79.39;100466.37;53369;1273;1016019;-51
2022/06/02 04:14:48;;;;;;;8.30;2.60;;;;;;;12.16;78.82;100480.10;52633;1274;1021278;-50
2022/06/02 04:17:28;;;;;;;8.30;2.10;;;;;;;12.15;78.99;100481.61;52436;1273;1016622;-52
2022/06/02 04:23:23;;;;;;;9.60;2.70;;;;;;;12.21;79.30;100501.66;52516;1273;1015980;-51
2022/06/02 04:26:02;;;;;;;7.40;2.00;;;;;;;12.28;79.68;100509.70;52440;1277;1016700;-54
2022/06/02 04:28:57;;;;;;;7.80;2.00;;;;;;;12.33;78.95;100516.11;52530;1278;1016308;-53
2022/06/02 04:31:42;;;;;;;7.20;2.20;;;;;;;12.37;78.79;100526.40;52327;1276;1016620;-53
2022/06/02 04:34:29;;;;;;;6.90;2.20;;;;;;;12.34;78.76;100527.73;52558;1277;1018423;-53
2022/06/02 04:37:10;;;;;;;4.50;1.50;;;;;;;12.30;78.31;100510.14;52357;1279;1016443;-53
2022/06/02 04:39:57;;;;;;;6.10;1.30;;;;;;;12.26;78.10;100496.65;53029;1279;1016587;-54
2022/06/02 04:42:33;;;;;;;4.80;1.40;;;;;;;12.24;77.62;100508.79;52316;1281;1016508;-52
2022/06/02 04:45:10;;;;;;;4.90;1.20;;;;;;;12.20;77.81;100519.71;52531;1281;1016353;-54
2022/06/02 04:47:57;;;;;;;4.50;1.30;;;;;;;12.16;77.71;100529.42;52469;1281;1016293;-54
2022/06/02 04:50:32;;;;;;;6.20;1.40;;;;;;;12.15;77.61;100530.63;52374;1281;1016208;-53
2022/06/02 04:53:11;;;;;;;5.80;1.30;;;;;;;12.13;78.22;100532.58;52498;1281;1016723;-53
2022/06/02 04:55:53;;;;;;;5.50;1.50;;;;;;;12.11;78.14;100531.47;52527;1281;1015926;-53
2022/06/02 04:58:29;;;;;;;6.30;1.60;;;;;;;12.10;78.42;100532.02;52418;1280;1016011;-50
2022/06/02 05:01:07;;;;;;;4.50;1.20;;;;;;;12.09;78.37;100528.70;52428;1277;1018148;-50
2022/06/02 05:03:46;;;;;;;8.00;1.90;;;;;;;12.10;78.33;100533.34;52644;1273;1016122;-53
2022/06/02 05:06:25;;;;;;;6.50;1.50;;;;;;;12.11;78.37;100536.51;52801;1273;1017607;-52
2022/06/02 05:09:02;;;;;;;8.50;2.00;;;;;;;12.12;78.47;100543.55;52653;1273;1016143;-54
2022/06/02 05:11:48;;;;;;;4.30;1.40;;;;;;;12.13;78.58;100552.83;52659;1272;1016273;-52
2022/06/02 05:14:28;;;;;;;5.50;1.60;;;;;;;12.11;78.67;100563.17;52643;1273;1016523;-53
2022/06/02 05:17:09;;;;;;;6.50;1.80;;;;;;;12.11;78.84;100572.11;52768;1273;1016509;-51
2022/06/02 05:20:18;;;;;;;7.50;2.10;;;;;;;12.12;78.87;100577.94;52808;1273;1016093;-55
2022/06/02 05:23:28;;;;;;;5.90;1.80;;;;;;;12.16;79.19;100582.86;52127;1284;1016551;-58
2022/06/02 05:26:27;;;;;;;6.60;2.10;;;;;;;12.20;79.43;100582.98;51897;1290;1016294;-56
2022/06/02 05:29:29;;;;;;;7.10;2.00;;;;;;;12.24;79.42;100567.20;51751;1291;1016608;-56
2022/06/02 05:32:34;;;;;;;7.20;2.20;;;;;;;12.31;79.53;100560.39;51693;1291;1017094;-59
2022/06/02 05:35:42;;;;;;;7.90;2.10;;;;;;;12.39;79.31;100562.95;51874;1291;1016531;-55
2022/06/02 05:38:44;;;;;;;7.20;2.30;;;;;;;12.45;79.20;100577.20;51420;1297;1016223;-52
2022/06/02 05:41:27;;;;;;;10.10;2.30;;;;;;;12.47;79.33;100582.71;51373;1297;1016625;-52
2022/06/02 05:44:19;;;;;;;6.60;1.80;;;;;;;12.49;79.50;100581.68;51579;1296;1016665;-55
2022/06/02 05:47:15;;;;;;;6.60;2.20;;;;;;;12.53;79.41;100580.33;51721;1297;1016727;-55
2022/06/02 05:49:53;;;;;;;6.60;2.10;;;;;;;12.59;79.42;100586.84;51702;1296;1016828;-55
2022/06/02 05:52:36;;;;;;;7.70;2.20;;;;;;;12.65;79.78;100594.98;51617;1297;1016833;-51
2022/06/02 05:55:31;;;;;;;7.30;1.90;;;;;;;12.71;79.59;100584.79;51512;1296;1016664;-56
2022/06/02 05:58:31;;;;;;;6.20;2.20;;;;;;;12.76;79.58;100585.59;51533;1297;1017187;-51
2022/06/02 06:01:09;;;;;;;7.20;2.20;;;;;;;12.82;79.09;100578.30;51787;1290;1017448;-53
2022/06/02 06:04:01;;;;;;;7.50;2.10;;;;;;;12.87;79.17;100579.29;52128;1284;1021553;-53
2022/06/02 06:06:36;;;;;;;6.70;1.90;;;;;;;12.89;78.99;100603.12;52262;1279;1018077;-49
2022/06/02 06:09:15;;;;;;;8.10;1.40;;;;;;;12.89;79.24;100616.92;52518;1279;1016214;-55
2022/06/02 06:12:20;;;;;;;5.30;1.30;;;;;;;12.87;78.81;100624.99;52400;1279;1016818;-52
2022/06/02 06:14:59;;;;;;;4.00;1.20;;;;;;;12.80;78.01;100615.15;52254;1277;1016593;-52
2022/06/02 06:17:38;;;;;;;3.80;1.20;;;;;;;12.70;77.73;100617.38;52457;1276;1019822;-53
2022/06/02 06:20:19;;;;;;;3.80;1.20;;;;;;;12.60;77.88;100614.70;52535;1276;1016424;-55
2022/06/02 06:23:16;;;;;;;5.30;1.00;;;;;;;12.57;78.46;100617.41;52601;1276;1016421;-54
2022/06/02 06:25:59;;;;;;;4.00;1.20;;;;;;;12.60;78.29;100616.91;52520;1276;1016723;-54
2022/06/02 06:28:32;;;;;;;4.20;1.30;;;;;;;12.60;78.24;100624.19;52442;1276;1021174;-51
2022/06/02 06:31:11;;;;;;;4.00;1.20;;;;;;;12.60;77.87;100625.91;52509;1276;1016170;-53
2022/06/02 06:34:01;;;;;;;3.60;1.00;;;;;;;12.58;77.90;100623.94;52482;1276;1016686;-53
2022/06/02 06:36:59;;;;;;;8.90;1.90;;;;;;;12.55;77.85;100626.65;52523;1277;1018390;-53
2022/06/02 06:39:41;;;;;;;5.10;1.30;;;;;;;12.52;77.71;100629.55;52468;1276;1016683;-50
2022/06/02 06:42:39;;;;;;;5.20;1.50;;;;;;;12.49;77.09;100626.59;52455;1276;1016708;-54
2022/06/02 06:45:16;;;;;;;4.80;1.20;;;;;;;12.52;77.55;100626.91;52453;1276;1016565;-53
2022/06/02 06:47:49;;;;;;;3.70;1.20;;;;;;;12.62;78.10;100625.64;52402;1278;1016343;-52
2022/06/02 06:50:23;;;;;;;9.00;1.90;;;;;;;12.76;78.16;100625.30;52436;1277;1016355;-49
2022/06/02 06:53:07;;;;;;;6.20;1.70;;;;;;;12.91;77.80;100627.04;52540;1273;1015966;-50
2022/06/02 06:55:47;;;;;;;4.90;1.40;;;;;;;13.04;77.07;100628.88;52534;1273;1016355;-51
2022/06/02 06:58:29;;;;;;;6.50;1.60;;;;;;;13.14;76.41;100640.31;52668;1273;1016471;-52
2022/06/02 07:01:07;;;;;;;4.40;1.70;;;;;;;13.23;75.61;100642.28;52631;1273;1016776;-51
2022/06/02 07:03:46;;;;;;;7.70;1.50;;;;;;;13.32;75.87;100639.70;52643;1273;1016555;-52
2022/06/02 07:06:22;;;;;;;5.60;1.50;;;;;;;13.40;75.51;100644.41;52533;1272;1016431;-54
2022/06/02 07:09:00;;;;;;;5.00;1.50;;;;;;;13.49;75.48;100639.09;52537;1273;1016081;-50
2022/06/02 07:14:37;;;;;;;7.60;2.00;;;;;;;13.70;74.09;100638.73;52633;1273;1016451;-50
2022/06/02 07:17:13;;;;;;;6.90;1.90;;;;;;;13.79;74.12;100636.66;52662;1273;1016634;-50
2022/06/02 07:19:55;;;;;;;8.10;2.50;;;;;;;13.87;73.95;100640.36;52597;1273;1016971;-51
2022/06/02 07:22:33;;;;;;;6.90;1.90;;;;;;;13.95;72.97;100638.98;52661;1273;1016724;-53
2022/06/02 07:25:14;;;;;;;6.00;1.60;;;;;;;14.03;72.83;100638.84;52755;1273;1016401;-53
2022/06/02 07:27:52;;;;;;;4.70;1.60;;;;;;;14.06;72.03;100641.77;52639;1273;1016042;-54
2022/06/02 07:30:34;;;;;;;6.20;1.90;;;;;;;14.11;71.45;100646.63;52546;1272;1016433;-50
2022/06/02 07:33:55;;;;;;;4.90;1.70;;;;;;;14.18;71.88;100646.45;52669;1270;1016474;-49
2022/06/02 07:36:48;;;;;;;4.30;1.40;;;;;;;14.25;71.56;100649.12;52117;1284;1016800;-49
2022/06/02 07:39:43;;;;;;;4.80;1.70;;;;;;;14.32;71.07;100649.34;52150;1284;1016380;-49
2022/06/02 07:42:49;;;;;;;6.50;2.00;;;;;;;14.42;71.20;100655.27;52224;1284;1016998;-49
2022/06/02 07:45:31;;;;;;;7.20;1.90;;;;;;;14.53;70.42;100655.88;52202;1284;1016286;-49
2022/06/02 07:48:34;;;;;;;6.10;1.80;;;;;;;14.55;70.21;100655.08;52245;1283;1016421;-51
2022/06/02 07:51:12;;;;;;;5.50;1.60;;;;;;;14.66;69.95;100656.05;52070;1287;1015714;-53
2022/06/02 07:53:57;;;;;;;5.60;1.30;;;;;;;14.77;69.58;100657.84;52027;1286;1016483;-53
2022/06/02 07:56:39;;;;;;;6.20;1.70;;;;;;;14.91;69.32;100657.84;52066;1287;1016618;-50
2022/06/02 07:59:20;;;;;;;5.20;1.30;;;;;;;15.06;68.88;100659.48;52041;1287;1016388;-54
2022/06/02 08:02:11;;;;;;;3.90;1.20;;;;;;;15.15;68.61;100662.59;52137;1286;1016802;-54
2022/06/02 08:04:44;;;;;;;;;;;;;;;15.22;66.81;100666.97;51974;1287;1016226;-52
2022/06/02 08:07:25;;;;;;;5.50;1.70;;;;;;;15.24;66.91;100668.98;51976;1284;1015827;-51
2022/06/02 08:10:12;;;;;;;6.50;1.40;;;;;;;15.28;66.95;100672.89;52135;1284;1016308;-50
2022/06/02 08:12:49;;;;;;;6.20;1.30;;;;;;;15.32;66.76;100673.02;52352;1276;1016204;-53
2022/06/02 08:15:34;;;;;;;3.70;1.30;;;;;;;15.43;66.46;100678.84;52460;1279;1015746;-53
2022/06/02 08:18:15;;;;;;;3.20;0.90;;;;;;;15.53;66.10;100683.02;52508;1274;1016581;-49
2022/06/02 08:20:54;;;;;;;6.40;1.10;;;;;;;15.59;65.62;100683.66;52408;1278;1018521;-53
2022/06/02 08:23:55;;;;;;;3.40;1.30;;;;;;;15.66;65.28;100687.08;52677;1276;1018142;-51
2022/06/02 08:26:33;;;;;;;4.60;1.10;;;;;;;15.73;64.75;100690.19;52489;1278;1016894;-53
2022/06/02 08:29:14;;;;;;;4.90;1.30;;;;;;;15.80;64.47;100688.52;52693;1274;1016150;-51
2022/06/02 08:32:00;;;;;;;5.10;1.30;;;;;;;15.94;64.67;100687.67;52628;1273;1016395;-49
2022/06/02 08:34:38;;;;;;;3.30;1.10;;;;;;;16.05;64.13;100692.48;52737;1273;1016633;-51
2022/06/02 08:37:17;;;;;;;4.90;1.30;;;;;;;16.10;63.37;100691.11;52564;1273;1016678;-52
2022/06/02 08:40:16;;;;;;;4.30;1.10;;;;;;;16.20;63.23;100691.00;52718;1273;1015881;-50
2022/06/02 08:43:14;;;;;;;3.70;1.00;;;;;;;16.31;62.47;100694.10;52664;1273;1016226;-51
2022/06/02 08:46:09;;;;;;;4.40;1.10;;;;;;;16.22;62.23;100691.11;52637;1273;1016241;-51
2022/06/02 08:49:19;;;;;;;2.40;1.00;;;;;;;16.14;60.40;100695.90;52598;1273;1016389;-50
2022/06/02 08:52:16;;;;;;;6.60;1.20;;;;;;;16.05;61.19;100699.35;52624;1279;1016422;-55
2022/06/02 08:55:40;;;;;;;5.10;1.00;;;;;;;16.06;61.81;100697.20;52510;1279;1019506;-53
2022/06/02 08:58:37;;;;;;;4.90;0.90;;;;;;;16.11;61.12;100702.39;52139;1285;1015814;-54
2022/06/02 09:01:17;;;;;;;3.80;0.90;;;;;;;16.21;59.97;100700.58;51854;1290;1017778;-55
2022/06/02 09:04:02;;;;;;;;;;;;;;;16.33;60.02;100701.70;51945;1290;1016782;-55
2022/06/02 09:06:59;;;;;;;2.70;0.70;;;;;;;16.40;59.53;100701.98;51835;1290;1019285;-54
2022/06/02 09:10:14;;;;;;;2.40;0.70;;;;;;;16.57;60.13;100696.81;51712;1293;1016709;-54
2022/06/02 09:13:23;;;;;;;3.00;0.80;;;;;;;16.86;59.37;100698.54;51746;1294;1019345;-53
2022/06/02 09:16:23;;;;;;;5.90;0.90;;;;;;;17.03;59.20;100701.37;51792;1293;1016897;-55
2022/06/02 09:19:12;;;;;;;3.40;0.70;;;;;;;17.01;56.99;100701.27;51567;1296;1016804;-53
2022/06/02 09:22:03;;;;;;;2.00;0.60;;;;;;;17.02;57.38;100700.45;51461;1296;1016254;-53
2022/06/02 09:24:46;;;;;;;1.80;0.70;;;;;;;17.02;56.25;100710.45;51464;1294;1018638;-54
2022/06/02 09:27:48;;;;;;;3.00;0.60;;;;;;;16.95;56.47;100705.98;51550;1296;1016885;-52
2022/06/02 09:30:26;;;;;;;2.90;0.80;;;;;;;16.96;55.87;100710.05;51682;1292;1016597;-51
2022/06/02 09:36:02;;;;;;;2.20;0.50;;;;;;;16.84;55.17;100711.10;51958;1287;1016189;-53
2022/06/02 09:38:55;;;;;;;3.00;0.80;;;;;;;16.82;55.88;100708.84;52134;1282;1016070;-55
2022/06/02 09:41:45;;;;;;;2.80;0.60;;;;;;;16.84;55.48;100715.14;52378;1281;1016032;-51
2022/06/02 09:44:25;;;;;;;2.40;0.70;;;;;;;16.92;56.07;100715.36;52321;1281;1017028;-51
2022/06/02 09:47:34;;;;;;;2.20;0.60;;;;;;;17.06;55.37;100716.14;52360;1280;1016573;-50
2022/06/02 09:50:28;;;;;;;1.80;0.60;;;;;;;17.15;54.14;100715.38;52546;1278;1016546;-52
2022/06/02 09:53:27;;;;;;;3.80;0.80;;;;;;;17.13;53.20;100714.76;52470;1277;1016285;-50
2022/06/02 09:56:24;;;;;;;4.20;0.70;;;;;;;17.22;53.99;100713.52;52550;1274;1016339;-50
2022/06/02 09:59:13;;;;;;;2.00;0.60;;;;;;;17.28;54.48;100714.23;52695;1273;1016331;-53
2022/06/02 10:01:55;;;;;;;1.30;0.50;;;;;;;17.33;53.50;100717.83;52628;1273;1018740;-49
2022/06/02 10:04:38;;;;;;;3.10;0.70;;;;;;;17.40;53.82;100717.16;52930;1262;1015963;-58
2022/06/02 10:07:43;;;;;;;3.80;0.50;;;;;;;17.44;53.07;100720.42;52605;1273;1017336;-57
2022/06/02 10:10:41;;;;;;;2.80;0.60;;;;;;;17.51;53.17;100715.27;52577;1274;1016753;-58
2022/06/02 10:13:44;;;;;;;3.30;0.70;;;;;;;17.55;52.86;100719.32;52640;1274;1018766;-58
2022/06/02 10:16:44;;;;;;;3.60;0.50;;;;;;;17.55;52.71;100718.54;52583;1273;1016597;-57
2022/06/02 10:19:35;;;;;;;1.20;0.50;;;;;;;17.65;52.29;100720.63;52599;1273;1016545;-58
2022/06/02 10:22:15;;;;;;;1.50;0.50;;;;;;;17.79;52.58;100721.01;52693;1273;1017593;-57
2022/06/02 10:25:09;;;;;;;3.50;0.50;;;;;;;17.89;52.10;100723.90;52788;1273;1017511;-59
2022/06/02 10:28:20;;;;;;;1.80;0.50;;;;;;;18.00;51.81;100718.52;52669;1273;1016683;-58
2022/06/02 10:31:14;;;;;;;1.20;0.40;;;;;;;18.09;50.80;100721.38;52539;1273;1017530;-59
2022/06/02 10:34:14;;;;;;;2.30;0.60;;;;;;;18.14;50.72;100730.39;52623;1273;1016518;-59
2022/06/02 10:37:14;;;;;;;3.90;0.40;;;;;;;18.16;50.35;100726.89;52659;1273;1016173;-59
2022/06/02 10:40:13;;;;;;;1.20;0.40;;;;;;;18.18;49.96;100724.77;52512;1279;1016133;-59
2022/06/02 10:43:13;;;;;;;4.60;0.50;;;;;;;18.26;49.50;100717.23;52550;1279;1016553;-59
2022/06/02 10:46:13;;;;;;;1.00;0.40;;;;;;;18.40;49.25;100716.60;52440;1279;1017457;-58
2022/06/02 10:49:00;;;;;;;3.10;0.40;;;;;;;18.45;49.52;100713.37;52195;1284;1017750;-58
2022/06/02 10:52:08;;;;;;;1.30;0.40;;;;;;;18.48;48.86;100714.33;52168;1284;1018289;-59
2022/06/02 10:55:10;;;;;;;2.60;0.50;;;;;;;18.44;48.54;100716.19;51997;1290;1018330;-59
2022/06/02 10:58:22;;;;;;;2.40;0.50;;;;;;;18.44;47.99;100719.33;51870;1290;1017410;-59
2022/06/02 11:01:24;;;;;;;1.40;0.30;;;;;;;18.50;48.07;100710.36;51736;1294;1016508;-59
2022/06/02 11:04:25;;;;;;;0.80;0.20;;;;;;;18.53;47.28;100712.50;51696;1293;1016212;-59
2022/06/02 11:07:38;;;;;;;3.00;0.30;;;;;;;18.55;46.89;100713.14;51626;1293;1015876;-58
2022/06/02 11:10:22;;;;;;;1.90;0.40;;;;;;;18.63;45.86;100712.34;51693;1293;1016791;-58
2022/06/02 11:13:19;;;;;;;1.10;0.30;;;;;;;18.64;46.84;100709.75;51765;1293;1016680;-57
2022/06/02 11:16:34;;;;;;;1.20;0.20;;;;;;;18.77;46.31;100708.08;51669;1294;1016586;-58
2022/06/02 11:19:44;;;;;;;1.60;0.40;;;;;;;18.92;45.89;100713.25;51901;1288;1016102;-59
2022/06/02 11:22:44;;;;;;;1.60;0.40;;;;;;;18.97;44.69;100720.33;51959;1288;1016606;-58
2022/06/02 11:26:09;;;;;;;1.20;0.30;;;;;;;18.97;45.40;100713.43;52009;1288;1016283;-58
2022/06/02 11:29:05;;;;;;;0.90;0.30;;;;;;;19.14;45.47;100704.39;51744;1290;1018999;-56
2022/06/02 11:32:05;;;;;;;2.70;0.30;;;;;;;19.26;44.92;100704.64;51849;1288;1019567;-57
2022/06/02 11:35:05;;;;;;;1.20;0.20;;;;;;;19.21;44.81;100696.55;51983;1288;1016373;-54
2022/06/02 11:37:57;;;;;;;0.80;0.30;;;;;;;19.17;44.56;100698.92;52121;1284;1016228;-57
2022/06/02 11:40:43;;;;;;;2.00;0.20;;;;;;;19.10;44.34;100698.80;51917;1287;1016381;-56
2022/06/02 11:43:17;;;;;;;2.10;0.30;;;;;;;19.12;43.49;100690.52;51897;1287;1016443;-57
2022/06/02 11:46:20;;;;;;;1.00;0.20;;;;;;;19.24;43.61;100695.66;51942;1287;1016234;-58
2022/06/02 11:49:18;;;;;;;1.90;0.30;;;;;;;19.34;42.87;100700.44;51893;1287;1020634;-58
2022/06/02 11:52:18;;;;;;;3.10;0.30;;;;;;;19.43;42.36;100696.38;51962;1287;1016478;-58
2022/06/02 11:55:11;;;;;;;1.60;0.10;;;;;;;19.46;41.96;100695.13;51407;1299;1017841;-58
2022/06/02 11:58:07;;;;;;;1.70;0.50;;;;;;;19.47;42.17;100698.05;51500;1299;1016056;-56
2022/06/02 12:01:06;;;;;;;0.70;0.20;;;;;;;19.58;41.96;100699.16;51626;1293;1016564;-58
2022/06/02 12:04:04;;;;;;;0.90;0.10;;;;;;;19.64;41.90;100695.29;51555;1296;1016352;-57
2022/06/02 12:07:04;;;;;;;2.00;0.30;;;;;;;19.56;41.08;100699.86;51806;1291;1016492;-58
2022/06/02 12:09:59;;;;;;;1.00;0.30;;;;;;;19.52;40.29;100705.25;51803;1291;1016515;-57
2022/06/02 12:12:46;;;;;;;1.30;0.30;;;;;;;19.45;41.38;100699.19;51761;1291;1017434;-58
2022/06/02 12:15:33;;;;;;;0.60;0.30;;;;;;;19.44;41.57;100698.43;51780;1291;1015942;-57
2022/06/02 12:18:16;;;;;;;0.70;0.30;;;;;;;19.43;41.82;100699.16;51903;1288;1016729;-58
2022/06/02 12:21:24;;;;;;;1.10;0.20;;;;;;;19.46;41.94;100703.20;51953;1287;1016606;-58
2022/06/02 12:24:13;;;;;;;0.60;0.30;;;;;;;19.47;42.16;100698.83;51749;1291;1016586;-57
2022/06/02 12:27:03;;;;;;;0.80;0.10;;;;;;;19.49;41.99;100696.67;51764;1291;1015924;-58
2022/06/02 12:29:54;;;;;;;5.30;0.30;;;;;;;19.55;41.73;100705.73;51787;1292;1016487;-56
2022/06/02 12:32:59;;;;;;;1.00;0.20;;;;;;;19.64;41.36;100703.79;52084;1283;1020242;-58
2022/06/02 12:35:52;;;;;;;1.90;0.20;;;;;;;19.67;40.96;100699.63;52276;1284;1016216;-58
2022/06/02 12:38:46;;;;;;;2.30;0.20;;;;;;;19.73;41.47;100702.73;52247;1284;1016373;-58
2022/06/02 12:41:48;;;;;;;1.40;0.20;;;;;;;19.75;39.57;100707.95;52292;1279;1016516;-58
2022/06/02 12:44:51;;;;;;;1.10;0.20;;;;;;;19.72;40.08;100710.20;52473;1279;1016355;-58
2022/06/02 12:47:51;;;;;;;1.30;0.30;;;;;;;19.78;39.62;100712.34;52182;1282;1016553;-58
2022/06/02 12:50:44;;;;;;;0.90;0.20;;;;;;;19.83;39.30;100709.25;51815;1290;1016708;-58
2022/06/02 12:54:02;;;;;;;0.70;0.20;;;;;;;19.79;39.54;100702.06;51663;1296;1016705;-58
2022/06/02 12:57:14;;;;;;;2.00;0.20;;;;;;;19.88;39.40;100700.53;51740;1295;1018719;-58
2022/06/02 13:00:13;;;;;;;1.60;0.30;;;;;;;20.11;39.08;100693.40;51747;1294;1016714;-58